Time;durP1;ratioP1;P1;durP2;ratioP2;P2;SDS_P1;SDS_P2;PMS_P1;PMS_P2;Temp;Humidity;BMP_temperature;BMP_pressure;BME280_temperature;BME280_humidity;BME280_pressure;Samples;Min_cycle;Max_cycle;Signal;HPM_P1;HPM_P2
2021/05/17 00:02:23;;;;;;;1.47;0.20;;;11.40;99.90;;;;;;1877406;76;21116;-73
2021/05/17 00:04:49;;;;;;;0.65;0.20;;;11.40;99.90;;;;;;1877247;76;21141;-73
2021/05/17 00:07:15;;;;;;;0.10;0.10;;;11.30;99.90;;;;;;1877351;76;21201;-73
2021/05/17 00:09:41;;;;;;;0.20;0.20;;;11.30;99.90;;;;;;1877198;76;21074;-73
2021/05/17 00:12:07;;;;;;;0.25;0.20;;;11.30;99.90;;;;;;1877284;76;21083;-72
2021/05/17 00:14:34;;;;;;;0.53;0.30;;;11.20;99.90;;;;;;1877529;76;21156;-72
2021/05/17 00:17:00;;;;;;;0.33;0.20;;;11.20;99.90;;;;;;1877583;76;21454;-72
2021/05/17 00:19:26;;;;;;;0.10;0.10;;;11.30;99.90;;;;;;1877249;76;21526;-72
2021/05/17 00:21:52;;;;;;;2.37;0.30;;;11.20;99.90;;;;;;1877249;76;21039;-72
2021/05/17 00:24:18;;;;;;;0.65;0.20;;;11.20;99.90;;;;;;1877405;76;21486;-72
2021/05/17 00:26:44;;;;;;;0.40;0.20;;;11.20;99.90;;;;;;1877352;76;21491;-72
2021/05/17 00:29:10;;;;;;;0.82;0.20;;;11.20;99.90;;;;;;1877185;76;21038;-72
2021/05/17 00:31:36;;;;;;;2.40;0.40;;;11.20;99.90;;;;;;1877316;76;21156;-72
2021/05/17 00:34:02;;;;;;;2.30;0.20;;;11.20;99.90;;;;;;1877214;76;21074;-72
2021/05/17 00:36:30;;;;;;;6.33;1.10;;;11.20;99.90;;;;;;1877682;76;21078;-72
2021/05/17 00:38:56;;;;;;;0.20;0.20;;;11.10;99.90;;;;;;1877415;76;21451;-72
2021/05/17 00:41:23;;;;;;;0.20;0.20;;;11.10;99.90;;;;;;1878356;76;21494;-72
2021/05/17 00:43:49;;;;;;;0.10;0.10;;;11.20;99.90;;;;;;1879744;76;21095;-72
2021/05/17 00:46:15;;;;;;;0.33;0.17;;;11.10;99.90;;;;;;1879715;76;21487;-72
2021/05/17 00:48:41;;;;;;;0.10;0.10;;;11.10;99.90;;;;;;1879768;76;21050;-71
2021/05/17 00:51:07;;;;;;;0.50;0.20;;;11.20;99.90;;;;;;1879824;76;21070;-71
2021/05/17 00:53:33;;;;;;;1.22;0.40;;;11.20;99.90;;;;;;1877256;76;21206;-71
2021/05/17 00:55:59;;;;;;;0.30;0.30;;;11.10;99.90;;;;;;1877346;76;21067;-71
2021/05/17 00:58:26;;;;;;;4.15;0.40;;;11.10;99.90;;;;;;1877359;76;21107;-72
2021/05/17 01:00:52;;;;;;;1.98;0.40;;;11.10;99.90;;;;;;1877363;76;21145;-72
2021/05/17 01:03:18;;;;;;;1.45;0.37;;;11.10;99.90;;;;;;1877416;76;21133;-70
2021/05/17 01:05:44;;;;;;;0.85;0.28;;;11.10;99.90;;;;;;1877168;76;21173;-71
2021/05/17 01:08:10;;;;;;;0.35;0.23;;;11.10;99.90;;;;;;1877359;76;21070;-72
2021/05/17 01:10:36;;;;;;;0.28;0.20;;;11.10;99.90;;;;;;1877263;76;21096;-71
2021/05/17 01:13:02;;;;;;;1.07;0.62;;;11.10;99.90;;;;;;1877337;76;21074;-71
2021/05/17 01:15:29;;;;;;;0.70;0.50;;;11.00;99.90;;;;;;1877109;76;21074;-71
2021/05/17 01:17:55;;;;;;;0.10;0.10;;;11.10;99.90;;;;;;1877436;76;21106;-72
2021/05/17 01:20:27;;;;;;;3.70;0.20;;;11.10;99.90;;;;;;1877183;76;21076;-71
2021/05/17 01:23:00;;;;;;;;;;;11.10;99.90;;;;;;1879628;74;21524;-72
2021/05/17 01:25:22;;;;;;;2.15;0.40;;;11.00;99.90;;;;;;1876323;75;20405;-71
2021/05/17 01:27:48;;;;;;;2.27;0.50;;;11.00;99.90;;;;;;1877367;76;21589;-72
2021/05/17 01:30:14;;;;;;;4.33;0.47;;;11.10;99.90;;;;;;1877233;76;21523;-72
2021/05/17 01:32:40;;;;;;;0.40;0.28;;;11.00;99.90;;;;;;1877193;76;21225;-72
2021/05/17 01:35:06;;;;;;;0.80;0.45;;;11.00;99.90;;;;;;1877165;76;21111;-71
2021/05/17 01:37:33;;;;;;;1.40;0.60;;;11.00;99.90;;;;;;1877234;76;21048;-71
2021/05/17 01:39:59;;;;;;;1.62;0.37;;;11.00;99.90;;;;;;1877292;76;21059;-73
2021/05/17 01:42:25;;;;;;;1.17;0.45;;;11.00;99.90;;;;;;1877314;76;21126;-72
2021/05/17 01:44:51;;;;;;;0.93;0.20;;;11.00;99.90;;;;;;1877353;76;21148;-72
2021/05/17 01:47:19;;;;;;;2.72;0.40;;;10.90;99.90;;;;;;1877276;76;21052;-71
2021/05/17 01:49:45;;;;;;;2.40;0.33;;;10.90;99.90;;;;;;1877253;76;21090;-72
2021/05/17 01:52:11;;;;;;;1.17;0.40;;;10.80;99.90;;;;;;1877352;76;21510;-71
2021/05/17 01:54:37;;;;;;;1.72;0.42;;;10.80;99.90;;;;;;1877296;76;21361;-71
2021/05/17 01:57:03;;;;;;;1.27;0.30;;;10.80;99.90;;;;;;1877295;76;21071;-72
2021/05/17 01:59:30;;;;;;;0.15;0.15;;;10.80;99.90;;;;;;1877227;76;21148;-71
2021/05/17 02:01:56;;;;;;;0.60;0.20;;;10.80;99.90;;;;;;1877375;76;21114;-72
2021/05/17 02:04:22;;;;;;;1.10;0.30;;;10.80;99.90;;;;;;1877222;76;21047;-71
2021/05/17 02:06:48;;;;;;;0.17;0.17;;;10.80;99.90;;;;;;1877262;76;21071;-72
2021/05/17 02:09:14;;;;;;;0.40;0.20;;;10.80;99.90;;;;;;1877286;76;21083;-72
2021/05/17 02:11:40;;;;;;;1.98;0.30;;;10.80;99.90;;;;;;1877162;76;21071;-71
2021/05/17 02:14:06;;;;;;;1.07;0.30;;;10.80;99.90;;;;;;1877424;76;21051;-71
2021/05/17 02:16:32;;;;;;;2.35;0.40;;;10.70;99.90;;;;;;1877417;76;21107;-72
2021/05/17 02:18:59;;;;;;;0.10;0.10;;;10.70;99.90;;;;;;1877732;76;21067;-71
2021/05/17 02:21:25;;;;;;;3.12;0.30;;;10.70;99.90;;;;;;1877980;76;21047;-72
2021/05/17 02:23:51;;;;;;;0.20;0.20;;;10.70;99.90;;;;;;1877872;76;21086;-72
2021/05/17 02:26:17;;;;;;;1.45;0.20;;;10.70;99.90;;;;;;1877859;76;21075;-73
2021/05/17 02:28:44;;;;;;;1.72;0.40;;;10.70;99.90;;;;;;1877413;76;21156;-72
2021/05/17 02:31:10;;;;;;;3.10;0.37;;;10.70;99.90;;;;;;1877345;76;21081;-72
2021/05/17 02:33:36;;;;;;;0.28;0.20;;;10.60;99.90;;;;;;1877219;76;21133;-72
2021/05/17 02:36:02;;;;;;;0.10;0.10;;;10.50;99.90;;;;;;1877373;76;21576;-72
2021/05/17 02:38:28;;;;;;;1.82;0.13;;;10.50;99.90;;;;;;1877319;76;21443;-72
2021/05/17 02:40:54;;;;;;;0.30;0.30;;;10.40;99.90;;;;;;1877428;76;21498;-72
2021/05/17 02:43:20;;;;;;;0.30;0.10;;;10.40;99.90;;;;;;1877240;76;21495;-71
2021/05/17 02:45:46;;;;;;;1.45;0.13;;;10.40;99.90;;;;;;1877288;76;21479;-72
2021/05/17 02:48:12;;;;;;;1.90;0.53;;;10.30;99.90;;;;;;1877196;76;21206;-73
2021/05/17 02:50:39;;;;;;;4.25;0.20;;;10.20;99.90;;;;;;1877392;76;21055;-73
2021/05/17 02:53:05;;;;;;;0.90;0.30;;;10.30;99.90;;;;;;1877239;76;21095;-73
2021/05/17 02:55:31;;;;;;;0.40;0.20;;;10.30;99.90;;;;;;1877175;76;21062;-73
2021/05/17 02:57:58;;;;;;;0.93;0.25;;;10.30;99.90;;;;;;1877382;76;21499;-74
2021/05/17 03:00:24;;;;;;;0.10;0.10;;;10.30;99.90;;;;;;1877320;76;21506;-73
2021/05/17 03:02:50;;;;;;;4.83;0.20;;;10.30;99.90;;;;;;1877284;76;21560;-72
2021/05/17 03:05:16;;;;;;;0.20;0.20;;;10.30;99.90;;;;;;1877215;76;21090;-72
2021/05/17 03:07:42;;;;;;;1.52;0.37;;;10.30;99.90;;;;;;1877301;76;21194;-72
2021/05/17 03:10:08;;;;;;;0.78;0.23;;;10.30;99.90;;;;;;1877238;76;21164;-72
2021/05/17 03:12:34;;;;;;;0.23;0.23;;;10.40;99.90;;;;;;1877351;76;21230;-72
2021/05/17 03:15:00;;;;;;;0.72;0.30;;;10.30;99.90;;;;;;1877323;76;21044;-72
2021/05/17 03:17:27;;;;;;;0.00;0.00;;;10.30;99.90;;;;;;1877269;76;21074;-72
2021/05/17 03:19:53;;;;;;;3.47;0.37;;;10.30;99.90;;;;;;1877336;76;21067;-72
2021/05/17 03:22:19;;;;;;;0.60;0.20;;;10.30;99.90;;;;;;1877287;76;21075;-72
2021/05/17 03:24:45;;;;;;;0.65;0.20;;;10.30;99.90;;;;;;1877225;76;21377;-72
2021/05/17 03:27:11;;;;;;;0.10;0.10;;;10.30;99.90;;;;;;1877254;76;21043;-72
2021/05/17 03:29:38;;;;;;;0.10;0.10;;;10.30;99.90;;;;;;1877247;76;21086;-71
2021/05/17 03:32:04;;;;;;;0.65;0.30;;;10.20;99.90;;;;;;1877212;76;21072;-72
2021/05/17 03:34:30;;;;;;;2.08;0.30;;;10.20;99.90;;;;;;1877214;76;21156;-72
2021/05/17 03:36:56;;;;;;;3.10;0.30;;;10.20;99.90;;;;;;1877221;76;21118;-73
2021/05/17 03:39:22;;;;;;;0.20;0.10;;;10.20;99.90;;;;;;1877337;76;21071;-73
2021/05/17 03:41:48;;;;;;;0.13;0.13;;;10.20;99.90;;;;;;1877285;76;21074;-72
2021/05/17 03:44:14;;;;;;;0.98;0.20;;;10.20;99.90;;;;;;1877247;76;21157;-72
2021/05/17 03:46:40;;;;;;;0.30;0.17;;;10.20;99.90;;;;;;1877294;76;21074;-73
2021/05/17 03:49:07;;;;;;;0.20;0.20;;;10.20;99.90;;;;;;1877265;76;21090;-70
2021/05/17 03:51:33;;;;;;;0.25;0.25;;;10.20;99.90;;;;;;1877245;76;21119;-71
2021/05/17 03:53:59;;;;;;;0.60;0.30;;;10.20;99.90;;;;;;1877319;76;21152;-71
2021/05/17 03:56:25;;;;;;;0.23;0.23;;;10.20;99.90;;;;;;1877176;76;21047;-71
2021/05/17 03:58:51;;;;;;;0.33;0.20;;;10.30;99.90;;;;;;1877246;76;21472;-71
2021/05/17 04:01:17;;;;;;;0.25;0.17;;;10.30;99.90;;;;;;1877141;76;21083;-71
2021/05/17 04:03:43;;;;;;;3.52;0.30;;;10.40;99.90;;;;;;1877205;76;21152;-72
2021/05/17 04:06:16;;;;;;;0.15;0.15;;;10.40;99.90;;;;;;1877270;76;21140;-71
2021/05/17 04:13:52;;;;;;;0.20;0.20;;;10.40;99.90;;;;;;1876979;76;21153;-73
2021/05/17 04:16:18;;;;;;;1.05;0.10;;;10.40;99.90;;;;;;1877826;76;21108;-72
2021/05/17 04:18:46;;;;;;;0.10;0.10;;;10.50;99.90;;;;;;1877915;76;21572;-72
2021/05/17 04:21:12;;;;;;;0.20;0.20;;;10.40;99.90;;;;;;1877671;76;21056;-72
2021/05/17 04:23:38;;;;;;;0.30;0.10;;;10.50;99.90;;;;;;1877783;76;21183;-72
2021/05/17 04:26:04;;;;;;;4.03;0.28;;;10.50;99.90;;;;;;1877712;76;21075;-73
2021/05/17 04:28:30;;;;;;;3.70;0.53;;;10.60;99.90;;;;;;1877846;76;21220;-72
2021/05/17 04:30:57;;;;;;;4.12;0.30;;;10.60;99.90;;;;;;1877679;76;21122;-72
2021/05/17 04:33:23;;;;;;;1.00;0.30;;;10.60;99.90;;;;;;1877882;76;21625;-72
2021/05/17 04:35:49;;;;;;;3.95;0.30;;;10.70;99.90;;;;;;1877690;76;21144;-72
2021/05/17 04:38:15;;;;;;;0.50;0.25;;;10.70;99.90;;;;;;1877863;76;21270;-73
2021/05/17 04:40:43;;;;;;;0.37;0.33;;;10.90;99.90;;;;;;1877713;76;21140;-73
2021/05/17 04:43:09;;;;;;;1.25;0.20;;;10.90;99.90;;;;;;1877802;76;21120;-72
2021/05/17 04:45:35;;;;;;;0.20;0.20;;;10.90;99.90;;;;;;1877802;76;21531;-72
2021/05/17 04:48:01;;;;;;;2.60;0.85;;;10.90;99.90;;;;;;1877793;76;21561;-72
2021/05/17 04:50:27;;;;;;;1.32;0.33;;;10.90;99.90;;;;;;1877750;76;21522;-73
2021/05/17 04:52:53;;;;;;;0.30;0.30;;;10.90;99.90;;;;;;1877690;76;21539;-72
2021/05/17 04:55:19;;;;;;;0.35;0.35;;;10.90;99.90;;;;;;1877841;76;21527;-72
2021/05/17 04:57:46;;;;;;;2.37;0.35;;;10.90;99.90;;;;;;1877758;76;21540;-72
2021/05/17 05:00:12;;;;;;;0.62;0.30;;;10.90;99.90;;;;;;1877598;76;21097;-71
2021/05/17 05:02:39;;;;;;;0.20;0.20;;;10.90;99.90;;;;;;1878045;76;21086;-72
2021/05/17 05:05:05;;;;;;;1.05;0.23;;;11.00;99.90;;;;;;1873913;76;21087;-72
2021/05/17 05:07:31;;;;;;;0.33;0.17;;;11.00;99.90;;;;;;1877862;76;21086;-72
2021/05/17 05:09:57;;;;;;;0.40;0.40;;;11.00;99.90;;;;;;1877578;76;21203;-73
2021/05/17 05:12:23;;;;;;;2.00;0.42;;;11.00;99.90;;;;;;1877743;76;21164;-73
2021/05/17 05:14:49;;;;;;;1.15;0.30;;;10.90;99.90;;;;;;1877656;76;21090;-74
2021/05/17 05:17:15;;;;;;;1.20;0.40;;;10.90;99.90;;;;;;1877824;76;21532;-74
2021/05/17 05:19:42;;;;;;;0.20;0.20;;;10.80;99.90;;;;;;1877702;76;21552;-74
2021/05/17 05:22:08;;;;;;;0.80;0.35;;;10.80;99.90;;;;;;1877705;76;21498;-74
2021/05/17 05:24:34;;;;;;;0.65;0.30;;;10.80;99.90;;;;;;1877889;76;21573;-73
2021/05/17 05:27:08;;;;;;;0.20;0.20;;;10.90;99.90;;;;;;1877684;76;21464;-71
2021/05/17 05:34:25;;;;;;;1.77;0.30;;;11.40;99.90;;;;;;1877639;76;21115;-70
2021/05/17 05:36:51;;;;;;;0.13;0.10;;;11.40;99.90;;;;;;1877658;76;21543;-73
2021/05/17 05:39:18;;;;;;;1.27;0.50;;;11.50;99.90;;;;;;1877702;76;21565;-74
2021/05/17 05:41:44;;;;;;;0.33;0.20;;;11.70;99.90;;;;;;1877755;76;21546;-73
2021/05/17 05:44:10;;;;;;;1.47;0.33;;;11.90;99.90;;;;;;1877777;76;21547;-72
2021/05/17 05:46:36;;;;;;;0.72;0.30;;;12.00;99.90;;;;;;1877759;76;21608;-73
2021/05/17 05:49:02;;;;;;;4.95;0.35;;;12.00;99.90;;;;;;1877607;76;21082;-72
2021/05/17 05:51:28;;;;;;;0.80;0.20;;;11.90;99.90;;;;;;1877860;76;21119;-72
2021/05/17 05:53:55;;;;;;;0.53;0.23;;;11.90;99.90;;;;;;1877654;76;21140;-73
2021/05/17 05:56:21;;;;;;;0.95;0.28;;;11.70;99.90;;;;;;1877749;76;21107;-73
2021/05/17 05:58:47;;;;;;;0.10;0.10;;;11.80;99.90;;;;;;1877691;76;21055;-75
2021/05/17 06:01:13;;;;;;;0.40;0.20;;;11.70;99.90;;;;;;1877658;76;21123;-75
2021/05/17 06:03:39;;;;;;;0.28;0.28;;;11.70;99.90;;;;;;1877656;76;21146;-75
2021/05/17 06:06:05;;;;;;;0.20;0.20;;;11.80;99.90;;;;;;1877647;76;21164;-75
2021/05/17 06:08:33;;;;;;;1.22;0.30;;;11.90;99.90;;;;;;1877626;76;21156;-75
2021/05/17 06:11:00;;;;;;;0.15;0.15;;;11.80;99.90;;;;;;1877600;76;21487;-75
2021/05/17 06:13:26;;;;;;;0.30;0.30;;;11.90;99.90;;;;;;1877621;76;21585;-74
2021/05/17 06:15:52;;;;;;;0.30;0.20;;;11.90;99.90;;;;;;1877633;76;21062;-74
2021/05/17 06:18:18;;;;;;;0.20;0.20;;;11.80;99.90;;;;;;1877678;76;21071;-74
2021/05/17 06:20:44;;;;;;;0.50;0.15;;;11.50;99.90;;;;;;1877615;76;21074;-74
2021/05/17 06:23:13;;;;;;;5.12;0.40;;;11.60;99.90;;;;;;1877661;76;21052;-75
2021/05/17 06:25:38;;;;;;;0.20;0.20;;;11.80;99.90;;;;;;1877704;76;21124;-75
2021/05/17 06:28:04;;;;;;;0.20;0.20;;;11.80;99.90;;;;;;1877828;76;21148;-74
2021/05/17 06:30:31;;;;;;;1.65;0.50;;;12.10;99.90;;;;;;1877749;76;21082;-73
2021/05/17 06:32:58;;;;;;;0.65;0.23;;;12.30;99.90;;;;;;1877681;76;21063;-73
2021/05/17 06:35:27;;;;;;;0.30;0.30;;;12.40;99.90;;;;;;1877609;76;21090;-73
2021/05/17 06:37:52;;;;;;;0.93;0.30;;;12.30;99.90;;;;;;1877565;76;21107;-73
2021/05/17 06:40:18;;;;;;;0.47;0.23;;;12.50;99.90;;;;;;1877609;76;21554;-73
2021/05/17 06:42:44;;;;;;;3.45;0.33;;;12.50;99.90;;;;;;1877712;76;21535;-74
2021/05/17 06:45:10;;;;;;;0.70;0.20;;;12.50;99.90;;;;;;1877719;76;21488;-73
2021/05/17 06:47:36;;;;;;;2.77;0.20;;;12.60;99.90;;;;;;1877704;76;21537;-73
2021/05/17 06:50:02;;;;;;;0.20;0.17;;;12.80;99.90;;;;;;1877760;76;21534;-73
2021/05/17 06:52:28;;;;;;;0.98;0.30;;;12.50;99.90;;;;;;1877685;76;21535;-73
2021/05/17 06:55:01;;;;;;;0.35;0.20;;;12.40;99.90;;;;;;1877748;76;21084;-73
2021/05/17 06:57:30;;;;;;;0.57;0.20;;;12.40;99.90;;;;;;1875795;75;21115;-73
2021/05/17 06:59:55;;;;;;;0.60;0.30;;;12.40;99.90;;;;;;1876619;76;21104;-73
2021/05/17 07:02:18;;;;;;;1.45;0.30;;;12.50;99.90;;;;;;1877094;76;21100;-73
2021/05/17 07:04:44;;;;;;;0.30;0.10;;;12.50;99.90;;;;;;1877928;76;21115;-73
2021/05/17 07:07:10;;;;;;;7.33;1.20;;;12.40;99.90;;;;;;1877683;76;21043;-72
2021/05/17 07:12:21;;;;;;;1.87;0.50;;;12.10;99.90;;;;;;1878076;76;21083;-72
2021/05/17 07:14:47;;;;;;;1.20;0.88;;;12.20;99.90;;;;;;1877625;76;21118;-72
2021/05/17 07:17:13;;;;;;;4.20;0.75;;;12.40;99.90;;;;;;1877825;76;21084;-73
2021/05/17 07:19:39;;;;;;;1.98;0.98;;;12.30;99.90;;;;;;1877646;76;21078;-72
2021/05/17 07:24:49;;;;;;;0.53;0.30;;;12.50;99.90;;;;;;1878176;76;21104;-72
2021/05/17 07:27:15;;;;;;;1.80;0.57;;;12.50;99.90;;;;;;1877907;76;21145;-72
2021/05/17 07:29:42;;;;;;;2.75;0.30;;;12.60;99.90;;;;;;1877585;76;21141;-73
2021/05/17 07:32:10;;;;;;;0.20;0.20;;;12.70;99.90;;;;;;1877707;76;21177;-73
2021/05/17 07:34:37;;;;;;;1.05;0.80;;;12.80;99.90;;;;;;1877736;74;21115;-73
2021/05/17 07:37:03;;;;;;;1.25;0.30;;;12.70;99.90;;;;;;1877515;76;21111;-73
2021/05/17 07:39:29;;;;;;;1.32;0.40;;;12.60;99.90;;;;;;1877768;76;21091;-73
2021/05/17 07:41:56;;;;;;;1.17;0.40;;;12.70;99.90;;;;;;1877576;76;21086;-72
2021/05/17 07:44:22;;;;;;;1.00;0.13;;;13.00;99.90;;;;;;1877746;76;21075;-72
2021/05/17 07:46:48;;;;;;;0.35;0.10;;;13.20;99.90;;;;;;1877580;76;21086;-74
2021/05/17 07:49:16;;;;;;;0.28;0.20;;;13.40;99.90;;;;;;1877680;76;21063;-73
2021/05/17 07:51:46;;;;;;;0.40;0.20;;;13.40;99.90;;;;;;1877595;76;21593;-73
2021/05/17 07:54:09;;;;;;;0.82;0.25;;;13.70;99.90;;;;;;1876490;76;21182;-73
2021/05/17 07:56:36;;;;;;;0.20;0.10;;;14.10;99.90;;;;;;1877653;76;21075;-74
2021/05/17 07:59:02;;;;;;;0.75;0.23;;;14.10;99.90;;;;;;1877878;76;21115;-74
2021/05/17 08:01:28;;;;;;;0.20;0.20;;;14.70;99.90;;;;;;1877667;76;21090;-74
2021/05/17 08:03:54;;;;;;;1.47;0.30;;;14.80;99.90;;;;;;1877870;76;21123;-74
2021/05/17 08:06:21;;;;;;;0.75;0.15;;;14.60;99.90;;;;;;1877634;76;21091;-74
2021/05/17 08:08:47;;;;;;;0.20;0.17;;;14.10;99.90;;;;;;1877985;76;21130;-74
2021/05/17 08:11:13;;;;;;;0.72;0.30;;;13.90;99.90;;;;;;1877785;76;21080;-74
2021/05/17 08:13:39;;;;;;;7.03;0.25;;;14.00;99.90;;;;;;1877784;76;21157;-73
2021/05/17 08:16:05;;;;;;;1.07;0.10;;;13.90;99.90;;;;;;1877781;76;21099;-74
2021/05/17 08:18:32;;;;;;;0.17;0.10;;;13.80;99.90;;;;;;1877917;76;21099;-74
2021/05/17 08:20:58;;;;;;;0.30;0.20;;;13.40;99.90;;;;;;1877820;76;21139;-74
2021/05/17 08:23:24;;;;;;;0.30;0.10;;;13.60;99.90;;;;;;1877779;76;21559;-74
2021/05/17 08:25:50;;;;;;;0.25;0.20;;;13.70;99.90;;;;;;1877744;76;21603;-74
2021/05/17 08:28:16;;;;;;;0.30;0.20;;;14.10;99.90;;;;;;1877782;76;21616;-74
2021/05/17 08:30:46;;;;;;;0.00;0.00;;;14.20;99.90;;;;;;1877702;76;21447;-74
2021/05/17 08:33:10;;;;;;;0.55;0.20;;;14.30;99.90;;;;;;1877435;76;21104;-74
2021/05/17 08:35:36;;;;;;;0.68;0.20;;;14.80;99.90;;;;;;1877734;76;21193;-74
2021/05/17 08:38:02;;;;;;;0.15;0.15;;;15.00;99.90;;;;;;1877682;76;21062;-75
2021/05/17 08:40:28;;;;;;;0.60;0.30;;;14.90;99.90;;;;;;1877629;76;21059;-74
2021/05/17 08:42:55;;;;;;;0.95;0.40;;;15.00;99.90;;;;;;1877795;76;21538;-74
2021/05/17 08:45:21;;;;;;;3.20;0.30;;;14.70;99.90;;;;;;1877753;76;21589;-74
2021/05/17 08:47:47;;;;;;;1.87;0.10;;;14.70;99.90;;;;;;1877881;76;21656;-74
2021/05/17 08:50:13;;;;;;;1.80;0.28;;;14.60;99.90;;;;;;1877726;76;21562;-74
2021/05/17 08:52:39;;;;;;;1.45;0.30;;;14.50;99.90;;;;;;1877736;76;21546;-74
2021/05/17 08:55:05;;;;;;;0.20;0.10;;;14.60;99.90;;;;;;1877808;76;21103;-74
2021/05/17 08:57:31;;;;;;;1.00;0.30;;;15.00;99.90;;;;;;1876930;76;21083;-74
2021/05/17 08:59:57;;;;;;;1.10;0.20;;;15.10;99.90;;;;;;1877803;76;21121;-74
2021/05/17 09:02:24;;;;;;;0.20;0.17;;;15.10;99.90;;;;;;1877795;76;21149;-74
2021/05/17 09:04:50;;;;;;;0.90;0.23;;;14.90;99.90;;;;;;1877825;76;21119;-74
2021/05/17 09:07:16;;;;;;;1.10;0.35;;;15.00;99.90;;;;;;1877820;76;21100;-74
2021/05/17 09:09:42;;;;;;;2.40;0.23;;;15.00;99.90;;;;;;1878021;76;21052;-75
2021/05/17 09:12:08;;;;;;;1.42;0.30;;;14.90;99.90;;;;;;1877787;76;21113;-75
2021/05/17 09:14:34;;;;;;;1.22;0.33;;;15.20;99.90;;;;;;1877743;76;21075;-75
2021/05/17 09:17:01;;;;;;;2.85;0.30;;;15.10;99.90;;;;;;1878041;76;21099;-75
2021/05/17 09:19:27;;;;;;;2.40;0.20;;;15.10;99.90;;;;;;1877611;76;21145;-73
2021/05/17 09:21:53;;;;;;;0.20;0.20;;;15.30;99.90;;;;;;1877957;76;21194;-74
2021/05/17 09:24:19;;;;;;;0.88;0.50;;;15.40;99.90;;;;;;1877839;76;21087;-74
2021/05/17 09:26:45;;;;;;;0.70;0.30;;;15.50;99.90;;;;;;1877982;76;21115;-74
2021/05/17 09:29:11;;;;;;;1.45;0.28;;;15.40;99.90;;;;;;1853735;76;21070;-74
2021/05/17 09:31:40;;;;;;;0.30;0.15;;;15.20;99.90;;;;;;1877980;76;21146;-74
2021/05/17 09:34:06;;;;;;;2.62;0.40;;;14.80;99.90;;;;;;1877830;76;21100;-74
2021/05/17 09:36:35;;;;;;;0.33;0.30;;;15.00;99.90;;;;;;1877831;76;21123;-74
2021/05/17 09:39:00;;;;;;;0.47;0.30;;;15.20;99.90;;;;;;1877628;76;21108;-74
2021/05/17 09:41:28;;;;;;;0.47;0.20;;;15.50;99.90;;;;;;1877826;76;21225;-74
2021/05/17 09:43:54;;;;;;;0.33;0.20;;;15.50;99.90;;;;;;1877946;76;21083;-73
2021/05/17 09:46:20;;;;;;;0.25;0.15;;;15.70;99.90;;;;;;1877776;76;21052;-74
2021/05/17 09:48:46;;;;;;;5.25;0.20;;;15.00;99.90;;;;;;1877803;76;21111;-74
2021/05/17 09:51:15;;;;;;;1.17;0.30;;;14.20;99.90;;;;;;1877759;76;21155;-74
2021/05/17 09:53:42;;;;;;;0.23;0.20;;;13.90;99.90;;;;;;1877896;76;21115;-74
2021/05/17 09:56:08;;;;;;;0.65;0.20;;;13.70;99.90;;;;;;1877861;76;21103;-74
2021/05/17 09:58:34;;;;;;;0.42;0.23;;;13.70;99.90;;;;;;1877898;76;21475;-75
2021/05/17 10:01:00;;;;;;;0.53;0.20;;;14.00;99.90;;;;;;1877869;76;21019;-75
2021/05/17 10:03:28;;;;;;;0.20;0.20;;;14.00;99.90;;;;;;1879358;76;21104;-74
2021/05/17 10:05:54;;;;;;;0.20;0.20;;;14.00;99.90;;;;;;1878060;76;21601;-75
2021/05/17 10:08:22;;;;;;;2.70;0.15;;;14.40;99.90;;;;;;1877892;76;21412;-74
2021/05/17 10:10:48;;;;;;;0.65;0.30;;;14.80;99.90;;;;;;1877833;76;21063;-75
2021/05/17 10:13:14;;;;;;;1.00;0.28;;;15.20;99.90;;;;;;1880297;76;21099;-75
2021/05/17 10:15:41;;;;;;;3.15;0.40;;;15.40;99.90;;;;;;1877758;76;21431;-75
2021/05/17 10:18:07;;;;;;;0.40;0.20;;;15.40;99.90;;;;;;1877703;76;21184;-75
2021/05/17 10:20:33;;;;;;;0.13;0.10;;;15.20;99.90;;;;;;1877661;76;21074;-74
2021/05/17 10:22:59;;;;;;;0.20;0.20;;;15.10;99.90;;;;;;1877679;76;21075;-75
2021/05/17 10:25:25;;;;;;;3.98;0.20;;;14.90;99.90;;;;;;1877603;76;21080;-74
2021/05/17 10:27:51;;;;;;;6.42;0.20;;;14.70;99.90;;;;;;1877664;76;21144;-75
2021/05/17 10:30:17;;;;;;;0.82;0.20;;;15.00;99.90;;;;;;1877656;76;21095;-74
2021/05/17 10:32:44;;;;;;;0.65;0.20;;;15.50;99.90;;;;;;1877737;76;21078;-74
2021/05/17 10:35:10;;;;;;;1.20;0.30;;;15.30;99.90;;;;;;1877680;76;21576;-74
2021/05/17 10:37:36;;;;;;;0.13;0.10;;;15.60;99.90;;;;;;1877618;76;21498;-74
2021/05/17 10:40:04;;;;;;;1.92;0.20;;;15.30;99.90;;;;;;1877829;76;21538;-74
2021/05/17 10:42:36;;;;;;;4.65;0.40;;;14.70;99.90;;;;;;1877635;76;21204;-73
2021/05/17 10:47:42;;;;;;;0.95;0.37;;;14.00;99.90;;;;;;1877428;76;21083;-74
2021/05/17 10:50:08;;;;;;;0.40;0.40;;;13.40;99.90;;;;;;1877556;76;21164;-74
2021/05/17 10:52:35;;;;;;;2.10;0.35;;;13.40;99.90;;;;;;1877720;76;21082;-74
2021/05/17 10:55:02;;;;;;;5.20;0.42;;;13.50;99.90;;;;;;1877778;76;21079;-74
2021/05/17 10:57:33;;;;;;;3.33;0.50;;;13.80;99.90;;;;;;1877630;76;21588;-74
2021/05/17 11:02:42;;;;;;;3.12;0.30;;;15.00;99.90;;;;;;1876892;76;21083;-75
2021/05/17 11:05:08;;;;;;;1.82;0.25;;;15.40;99.90;;;;;;1877553;76;21162;-75
2021/05/17 11:07:34;;;;;;;0.68;0.42;;;15.50;99.90;;;;;;1877471;76;21082;-74
2021/05/17 11:10:00;;;;;;;0.55;0.17;;;15.50;99.90;;;;;;1877013;76;21059;-73
2021/05/17 11:12:26;;;;;;;2.12;0.30;;;15.50;99.90;;;;;;1877315;76;21051;-73
2021/05/17 11:14:53;;;;;;;0.45;0.10;;;15.70;99.90;;;;;;1877265;76;21046;-73
2021/05/17 11:17:19;;;;;;;0.50;0.20;;;15.50;99.90;;;;;;1876814;76;21083;-75
2021/05/17 11:19:47;;;;;;;2.37;0.25;;;15.80;99.90;;;;;;1877108;76;21051;-74
2021/05/17 11:22:13;;;;;;;0.40;0.20;;;16.60;99.90;;;;;;1877063;76;21111;-75
2021/05/17 11:24:39;;;;;;;0.65;0.30;;;16.50;99.90;;;;;;1877096;76;21199;-74
2021/05/17 11:27:06;;;;;;;4.30;0.40;;;16.40;99.90;;;;;;1877131;76;21140;-74
2021/05/17 11:29:33;;;;;;;0.20;0.20;;;16.20;99.90;;;;;;1877140;76;21202;-73
2021/05/17 11:31:59;;;;;;;1.35;0.20;;;16.30;99.90;;;;;;1877131;76;21043;-73
2021/05/17 11:34:26;;;;;;;0.57;0.10;;;16.30;99.90;;;;;;1877121;76;21098;-73
2021/05/17 11:36:53;;;;;;;1.25;0.23;;;16.40;99.90;;;;;;1877153;76;21071;-73
2021/05/17 11:39:20;;;;;;;0.75;0.25;;;16.50;99.90;;;;;;1877130;76;21514;-74
2021/05/17 11:41:46;;;;;;;0.35;0.20;;;16.60;99.90;;;;;;1877138;76;21078;-73
2021/05/17 11:44:12;;;;;;;5.47;0.37;;;16.40;99.90;;;;;;1877382;76;21145;-73
2021/05/17 11:46:38;;;;;;;0.17;0.10;;;16.00;99.90;;;;;;1877405;76;21145;-73
2021/05/17 11:49:04;;;;;;;0.20;0.10;;;15.20;99.90;;;;;;1877262;76;21145;-73
2021/05/17 11:51:30;;;;;;;0.00;0.00;;;14.20;99.90;;;;;;1877197;76;21078;-73
2021/05/17 11:53:56;;;;;;;0.13;0.13;;;13.70;99.90;;;;;;1877262;76;21148;-73
2021/05/17 11:56:22;;;;;;;0.15;0.15;;;13.70;99.90;;;;;;1877265;76;21117;-73
2021/05/17 11:58:49;;;;;;;0.45;0.25;;;14.00;99.90;;;;;;1877269;76;21148;-73
2021/05/17 12:01:15;;;;;;;0.20;0.20;;;14.50;99.90;;;;;;1877233;76;21079;-73
2021/05/17 12:03:41;;;;;;;3.62;0.30;;;14.90;99.90;;;;;;1877355;76;21078;-73
2021/05/17 12:06:07;;;;;;;1.00;0.37;;;15.10;99.90;;;;;;1877157;76;21605;-74
2021/05/17 12:08:33;;;;;;;0.28;0.15;;;15.20;99.90;;;;;;1877327;76;21048;-74
2021/05/17 12:10:59;;;;;;;1.65;0.20;;;15.10;99.90;;;;;;1877095;76;21156;-73
2021/05/17 12:13:25;;;;;;;0.20;0.20;;;15.50;99.90;;;;;;1877282;76;21083;-74
2021/05/17 12:15:53;;;;;;;0.50;0.28;;;16.00;99.90;;;;;;1877181;76;21071;-73
2021/05/17 12:18:19;;;;;;;0.37;0.17;;;16.60;99.90;;;;;;1877232;76;21472;-73
2021/05/17 12:20:46;;;;;;;1.65;0.20;;;16.60;99.90;;;;;;1877123;76;21506;-73
2021/05/17 12:23:12;;;;;;;2.20;0.10;;;16.00;99.90;;;;;;1877383;76;21090;-73
2021/05/17 12:25:38;;;;;;;0.10;0.10;;;15.70;99.90;;;;;;1877430;76;21082;-73
2021/05/17 12:28:10;;;;;;;0.85;0.10;;;15.40;99.90;;;;;;1877383;76;21075;-73
2021/05/17 12:30:36;;;;;;;0.00;0.00;;;15.10;99.90;;;;;;1877555;76;21056;-73
2021/05/17 12:33:03;;;;;;;0.10;0.10;;;15.00;99.90;;;;;;1877265;76;21145;-73
2021/05/17 12:35:30;;;;;;;0.35;0.17;;;15.60;99.90;;;;;;1877338;76;21074;-73
2021/05/17 12:37:56;;;;;;;0.10;0.10;;;15.80;99.90;;;;;;1877194;76;21078;-73
2021/05/17 12:40:22;;;;;;;0.03;0.03;;;16.30;99.90;;;;;;1877342;76;21048;-73
2021/05/17 12:42:49;;;;;;;0.00;0.00;;;16.50;99.90;;;;;;1877516;76;21086;-72
2021/05/17 12:45:15;;;;;;;3.40;0.13;;;17.00;99.90;;;;;;1877445;76;21156;-73
2021/05/17 12:47:41;;;;;;;0.37;0.25;;;17.30;99.90;;;;;;1877171;76;21066;-73
2021/05/17 12:50:07;;;;;;;0.00;0.00;;;17.80;99.90;;;;;;1877168;76;21134;-73
2021/05/17 12:52:33;;;;;;;0.03;0.03;;;17.70;99.90;;;;;;1877166;76;21482;-73
2021/05/17 12:55:00;;;;;;;0.10;0.10;;;17.70;99.90;;;;;;1877190;76;21200;-72
2021/05/17 12:57:26;;;;;;;3.17;0.10;;;18.00;99.90;;;;;;1877163;76;21070;-73
2021/05/17 12:59:52;;;;;;;0.10;0.10;;;18.00;99.90;;;;;;1877254;76;21052;-73
2021/05/17 13:02:19;;;;;;;0.23;0.10;;;18.10;99.90;;;;;;1877188;76;21274;-73
2021/05/17 13:04:48;;;;;;;0.28;0.03;;;18.40;99.90;;;;;;1877084;76;21553;-73